createdAt,value
2016-11-24T00:00:02.811Z,996.39
2016-11-24T00:00:43.528Z,996.41
2016-11-24T00:01:24.221Z,996.4
2016-11-24T00:02:04.899Z,996.42
2016-11-24T00:02:45.574Z,996.44
2016-11-24T00:03:26.251Z,996.42
2016-11-24T00:04:06.970Z,996.43
2016-11-24T00:04:47.651Z,996.47
2016-11-24T00:05:28.351Z,996.42
2016-11-24T00:06:09.117Z,996.42
2016-11-24T00:06:49.800Z,996.43
2016-11-24T00:07:30.498Z,996.39
2016-11-24T00:08:11.201Z,996.4
2016-11-24T00:08:51.899Z,996.39
2016-11-24T00:09:32.574Z,996.38
2016-11-24T00:10:13.224Z,996.4
2016-11-24T00:10:53.987Z,996.42
2016-11-24T00:11:34.705Z,996.39
2016-11-24T00:12:15.420Z,996.4
2016-11-24T00:12:56.112Z,996.38
2016-11-24T00:13:36.849Z,996.37
2016-11-24T00:14:17.560Z,996.39
2016-11-24T00:14:58.297Z,996.38
2016-11-24T00:15:39.007Z,996.37
2016-11-24T00:16:19.699Z,996.41
2016-11-24T00:17:00.434Z,996.38
2016-11-24T00:17:41.132Z,996.4
2016-11-24T00:18:21.807Z,996.41
2016-11-24T00:19:02.547Z,996.4
2016-11-24T00:19:43.261Z,996.38
2016-11-24T00:20:23.931Z,996.42
2016-11-24T00:21:04.587Z,996.39
2016-11-24T00:21:45.319Z,996.38
2016-11-24T00:22:26.041Z,996.38
2016-11-24T00:23:06.738Z,996.38
2016-11-24T00:23:47.423Z,996.36
2016-11-24T00:24:28.125Z,996.39
2016-11-24T00:25:08.868Z,996.39
2016-11-24T00:25:49.604Z,996.39
2016-11-24T00:26:30.296Z,996.42
2016-11-24T00:27:10.973Z,996.42
2016-11-24T00:27:51.707Z,996.44
2016-11-24T00:28:32.389Z,996.42
2016-11-24T00:29:13.055Z,996.41
2016-11-24T00:29:53.747Z,996.43
2016-11-24T00:30:34.498Z,996.45
2016-11-24T00:31:15.194Z,996.46
2016-11-24T00:31:55.851Z,996.44
2016-11-24T00:32:36.522Z,996.45
2016-11-24T00:33:17.218Z,996.49
2016-11-24T00:33:57.916Z,996.45
2016-11-24T00:34:38.615Z,996.48
2016-11-24T00:35:19.319Z,996.5
2016-11-24T00:36:00.075Z,996.52
2016-11-24T00:36:40.777Z,996.53
2016-11-24T00:37:21.521Z,996.51
2016-11-24T00:38:02.198Z,996.52
2016-11-24T00:38:42.872Z,996.49
2016-11-24T00:39:23.550Z,996.53
2016-11-24T00:40:04.278Z,996.54
2016-11-24T00:40:44.953Z,996.55
2016-11-24T00:41:25.653Z,996.56
2016-11-24T00:42:06.280Z,996.56
2016-11-24T00:42:47.034Z,996.56
2016-11-24T00:43:27.714Z,996.55
2016-11-24T00:44:08.405Z,996.55
2016-11-24T00:44:49.103Z,996.52
2016-11-24T00:45:29.832Z,996.54
2016-11-24T00:46:10.540Z,996.5
2016-11-24T00:46:51.240Z,996.54
2016-11-24T00:47:31.935Z,996.58
2016-11-24T00:48:12.584Z,996.62
2016-11-24T00:48:53.305Z,996.61
2016-11-24T00:49:33.999Z,996.63
2016-11-24T00:50:14.730Z,996.64
2016-11-24T00:50:55.460Z,996.67
2016-11-24T00:51:36.173Z,996.69
2016-11-24T00:52:16.870Z,996.69
2016-11-24T00:52:57.560Z,996.7
2016-11-24T00:53:38.269Z,996.69
2016-11-24T00:54:18.975Z,996.71
2016-11-24T00:54:59.699Z,996.75
2016-11-24T00:55:40.432Z,996.7
2016-11-24T00:56:21.114Z,996.75
2016-11-24T00:57:01.837Z,996.75
2016-11-24T00:57:42.540Z,996.74
2016-11-24T00:58:23.184Z,996.73
2016-11-24T00:59:03.907Z,996.71
2016-11-24T00:59:44.563Z,996.69
2016-11-24T01:00:25.260Z,996.68
2016-11-24T01:01:05.924Z,996.69
2016-11-24T01:01:46.674Z,996.69
2016-11-24T01:02:27.376Z,996.69
2016-11-24T01:03:08.047Z,996.65
2016-11-24T01:03:48.733Z,996.67
2016-11-24T01:04:29.473Z,996.7
2016-11-24T01:05:10.199Z,996.68
2016-11-24T01:05:50.834Z,996.7
2016-11-24T01:06:31.497Z,996.68
2016-11-24T01:07:12.290Z,996.71
2016-11-24T01:07:52.992Z,996.73
2016-11-24T01:08:33.704Z,996.75
2016-11-24T01:09:14.350Z,996.74
2016-11-24T01:09:55.059Z,996.75
2016-11-24T01:10:35.772Z,996.76
2016-11-24T01:11:16.502Z,996.75
2016-11-24T01:11:57.158Z,996.83
2016-11-24T01:12:37.880Z,996.76
2016-11-24T01:13:18.571Z,996.78
2016-11-24T01:13:59.248Z,996.77
2016-11-24T01:14:39.941Z,996.78
2016-11-24T01:15:20.615Z,996.82
2016-11-24T01:16:01.334Z,996.82
2016-11-24T01:16:42.047Z,996.84
2016-11-24T01:17:22.759Z,996.83
2016-11-24T01:18:03.420Z,996.84
2016-11-24T01:18:44.126Z,996.86
2016-11-24T01:19:24.821Z,996.89
2016-11-24T01:20:05.479Z,996.91
2016-11-24T01:20:46.162Z,996.9
2016-11-24T01:21:26.833Z,996.94
2016-11-24T01:22:07.498Z,996.96
2016-11-24T01:22:48.191Z,996.92
2016-11-24T01:23:28.881Z,996.97
2016-11-24T01:24:09.562Z,996.94
2016-11-24T01:24:50.197Z,996.95
2016-11-24T01:25:30.896Z,996.96
2016-11-24T01:26:11.557Z,996.97
2016-11-24T01:26:52.205Z,997
2016-11-24T01:27:32.911Z,997.02
2016-11-24T01:28:13.580Z,996.97
2016-11-24T01:28:54.231Z,996.99
2016-11-24T01:29:34.965Z,996.97
2016-11-24T01:30:15.619Z,996.98
2016-11-24T01:30:56.312Z,997.03
2016-11-24T01:31:37.008Z,997.03
2016-11-24T01:32:17.711Z,997.06
2016-11-24T01:32:58.442Z,997.02
2016-11-24T01:33:39.105Z,997.05
2016-11-24T01:34:19.861Z,997.06
2016-11-24T01:35:00.536Z,997.1
2016-11-24T01:35:41.170Z,997.11
2016-11-24T01:36:21.854Z,997.15
2016-11-24T01:37:02.628Z,997.11
2016-11-24T01:37:43.314Z,997.16
2016-11-24T01:38:24.019Z,997.14
2016-11-24T01:39:04.669Z,997.18
2016-11-24T01:39:45.350Z,997.22
2016-11-24T01:40:26.077Z,997.21
2016-11-24T01:41:06.843Z,997.25
2016-11-24T01:41:47.579Z,997.25
2016-11-24T01:42:28.291Z,997.32
2016-11-24T01:43:08.980Z,997.29
2016-11-24T01:43:49.671Z,997.3
2016-11-24T01:44:30.336Z,997.3
2016-11-24T01:45:11.023Z,997.29
2016-11-24T01:45:51.780Z,997.27
2016-11-24T01:46:32.496Z,997.26
2016-11-24T01:47:13.149Z,997.3
2016-11-24T01:47:53.898Z,997.27
2016-11-24T01:48:34.558Z,997.29
2016-11-24T01:49:15.209Z,997.27
2016-11-24T01:49:55.916Z,997.29
2016-11-24T01:50:36.576Z,997.27
2016-11-24T01:51:17.273Z,997.28
2016-11-24T01:51:58.063Z,997.29
2016-11-24T01:52:38.739Z,997.26
2016-11-24T01:53:19.423Z,997.25
2016-11-24T01:54:00.164Z,997.27
2016-11-24T01:54:40.880Z,997.21
2016-11-24T01:55:21.569Z,997.23
2016-11-24T01:56:02.251Z,997.25
2016-11-24T01:56:42.937Z,997.21
2016-11-24T01:57:23.597Z,997.24
2016-11-24T01:58:04.296Z,997.23
2016-11-24T01:58:45.009Z,997.23
2016-11-24T01:59:25.700Z,997.25
2016-11-24T02:00:06.448Z,997.22
2016-11-24T02:00:47.206Z,997.23
2016-11-24T02:01:27.899Z,997.24
2016-11-24T02:02:08.586Z,997.24
2016-11-24T02:02:49.281Z,997.24
2016-11-24T02:03:30.035Z,997.21
2016-11-24T02:04:10.716Z,997.28
2016-11-24T02:04:51.423Z,997.28
2016-11-24T02:05:32.162Z,997.3
2016-11-24T02:06:12.942Z,997.31
2016-11-24T02:06:53.638Z,997.28
2016-11-24T02:07:34.359Z,997.33
2016-11-24T02:08:15.099Z,997.35
2016-11-24T02:08:55.753Z,997.35
2016-11-24T02:09:36.456Z,997.37
2016-11-24T02:10:17.132Z,997.37
2016-11-24T02:10:57.790Z,997.42
2016-11-24T02:11:38.483Z,997.43
2016-11-24T02:12:19.218Z,997.4
2016-11-24T02:12:59.934Z,997.41
2016-11-24T02:13:40.602Z,997.43
2016-11-24T02:14:21.308Z,997.42
2016-11-24T02:15:01.992Z,997.41
2016-11-24T02:15:42.675Z,997.46
2016-11-24T02:16:23.381Z,997.46
2016-11-24T02:17:04.066Z,997.45
2016-11-24T02:17:44.740Z,997.45
2016-11-24T02:18:25.469Z,997.45
2016-11-24T02:19:06.164Z,997.51
2016-11-24T02:19:46.822Z,997.43
2016-11-24T02:20:27.578Z,997.45
2016-11-24T02:21:08.306Z,997.45
2016-11-24T02:21:48.972Z,997.41
2016-11-24T02:22:29.689Z,997.42
2016-11-24T02:23:10.371Z,997.43
2016-11-24T02:23:51.059Z,997.41
2016-11-24T02:24:31.761Z,997.38
2016-11-24T02:25:12.461Z,997.41
2016-11-24T02:25:53.110Z,997.39
2016-11-24T02:26:33.785Z,997.4
2016-11-24T02:27:14.484Z,997.37
2016-11-24T02:27:55.207Z,997.38
2016-11-24T02:28:35.916Z,997.34
2016-11-24T02:29:16.594Z,997.36
2016-11-24T02:29:57.313Z,997.34
2016-11-24T02:30:37.995Z,997.35
2016-11-24T02:31:18.731Z,997.34
2016-11-24T02:31:59.384Z,997.34
2016-11-24T02:32:40.051Z,997.34
2016-11-24T02:33:20.763Z,997.37
2016-11-24T02:34:01.491Z,997.39
2016-11-24T02:34:42.222Z,997.37
2016-11-24T02:35:22.932Z,997.37
2016-11-24T02:36:03.629Z,997.41
2016-11-24T02:36:44.338Z,997.41
2016-11-24T02:37:25.037Z,997.42
2016-11-24T02:38:05.747Z,997.41
2016-11-24T02:38:46.464Z,997.47
2016-11-24T02:39:27.144Z,997.46
2016-11-24T02:40:07.877Z,997.49
2016-11-24T02:40:48.604Z,997.47
2016-11-24T02:41:29.364Z,997.46
2016-11-24T02:42:10.068Z,997.48
2016-11-24T02:42:50.691Z,997.4
2016-11-24T02:43:31.386Z,997.4
2016-11-24T02:44:12.065Z,997.41
2016-11-24T02:44:52.774Z,997.43
2016-11-24T02:45:33.469Z,997.42
2016-11-24T02:46:14.133Z,997.43
2016-11-24T02:46:54.904Z,997.44
2016-11-24T02:47:35.548Z,997.46
2016-11-24T02:48:16.257Z,997.48
2016-11-24T02:48:57.012Z,997.46
2016-11-24T02:49:37.725Z,997.49
2016-11-24T02:50:18.445Z,997.48
2016-11-24T02:50:59.105Z,997.52
2016-11-24T02:51:39.867Z,997.52
2016-11-24T02:52:20.575Z,997.5
2016-11-24T02:53:01.282Z,997.54
2016-11-24T02:53:42.012Z,997.53
2016-11-24T02:54:22.706Z,997.57
2016-11-24T02:55:03.398Z,997.52
2016-11-24T02:55:44.123Z,997.54
2016-11-24T02:56:24.819Z,997.56
2016-11-24T02:57:05.539Z,997.54
2016-11-24T02:57:46.220Z,997.55
2016-11-24T02:58:26.907Z,997.58
2016-11-24T02:59:07.548Z,997.62
2016-11-24T02:59:48.275Z,997.63
2016-11-24T03:00:28.968Z,997.63
2016-11-24T03:01:09.678Z,997.64
2016-11-24T03:01:50.387Z,997.67
2016-11-24T03:02:31.079Z,997.69
2016-11-24T03:03:11.733Z,997.68
2016-11-24T03:03:52.472Z,997.72
2016-11-24T03:04:33.213Z,997.7
2016-11-24T03:05:13.838Z,997.72
2016-11-24T03:05:54.558Z,997.71
2016-11-24T03:06:35.230Z,997.76
2016-11-24T03:07:15.892Z,997.73
2016-11-24T03:07:56.535Z,997.79
2016-11-24T03:08:37.251Z,997.78
2016-11-24T03:09:17.991Z,997.77
2016-11-24T03:09:58.748Z,997.74
2016-11-24T03:10:39.415Z,997.77
2016-11-24T03:11:20.168Z,997.75
2016-11-24T03:12:00.845Z,997.73
2016-11-24T03:12:41.539Z,997.7
2016-11-24T03:13:22.221Z,997.74
2016-11-24T03:14:02.916Z,997.7
2016-11-24T03:14:43.646Z,997.72
2016-11-24T03:15:24.328Z,997.71
2016-11-24T03:16:05.050Z,997.72
2016-11-24T03:16:45.803Z,997.73
2016-11-24T03:17:26.502Z,997.74
2016-11-24T03:18:07.157Z,997.73
2016-11-24T03:18:47.926Z,997.75
2016-11-24T03:19:28.582Z,997.72
2016-11-24T03:20:09.335Z,997.73
2016-11-24T03:20:50.024Z,997.71
2016-11-24T03:21:30.677Z,997.74
2016-11-24T03:22:11.426Z,997.8
2016-11-24T03:22:52.150Z,997.79
2016-11-24T03:23:32.881Z,997.78
2016-11-24T03:24:13.514Z,997.76
2016-11-24T03:24:54.188Z,997.77
2016-11-24T03:25:34.894Z,997.74
2016-11-24T03:26:15.617Z,997.74
2016-11-24T03:26:56.287Z,997.73
2016-11-24T03:27:37.024Z,997.79
2016-11-24T03:28:17.697Z,997.76
2016-11-24T03:28:58.388Z,997.76
2016-11-24T03:29:39.099Z,997.78
2016-11-24T03:30:19.805Z,997.74
2016-11-24T03:31:00.552Z,997.72
2016-11-24T03:31:41.252Z,997.75
2016-11-24T03:32:21.927Z,997.74
2016-11-24T03:33:02.582Z,997.77
2016-11-24T03:33:43.261Z,997.74
2016-11-24T03:34:23.997Z,997.76
2016-11-24T03:35:04.704Z,997.76
2016-11-24T03:35:45.375Z,997.79
2016-11-24T03:36:26.110Z,997.75
2016-11-24T03:37:06.828Z,997.74
2016-11-24T03:37:47.523Z,997.76
2016-11-24T03:38:28.253Z,997.73
2016-11-24T03:39:08.952Z,997.7
2016-11-24T03:39:49.685Z,997.7
2016-11-24T03:40:30.385Z,997.69
2016-11-24T03:41:11.093Z,997.73
2016-11-24T03:41:51.797Z,997.69
2016-11-24T03:42:32.496Z,997.67
2016-11-24T03:43:13.189Z,997.72
2016-11-24T03:43:53.866Z,997.76
2016-11-24T03:44:34.573Z,997.75
2016-11-24T03:45:15.231Z,997.76
2016-11-24T03:45:56.001Z,997.79
2016-11-24T03:46:36.696Z,997.82
2016-11-24T03:47:17.373Z,997.81
2016-11-24T03:47:58.064Z,997.86
2016-11-24T03:48:38.840Z,997.85
2016-11-24T03:49:19.541Z,997.86
2016-11-24T03:50:00.250Z,997.9
2016-11-24T03:50:40.923Z,997.94
2016-11-24T03:51:21.571Z,997.93
2016-11-24T03:52:02.251Z,997.94
2016-11-24T03:52:42.971Z,997.94
2016-11-24T03:53:23.661Z,997.97
2016-11-24T03:54:04.392Z,997.99
2016-11-24T03:54:45.064Z,997.99
2016-11-24T03:55:25.752Z,997.99
2016-11-24T03:56:06.458Z,998
2016-11-24T03:56:47.160Z,998.05
2016-11-24T03:57:27.899Z,998.01
2016-11-24T03:58:08.590Z,998.06
2016-11-24T03:58:49.325Z,998.06
2016-11-24T03:59:30.000Z,998.05
2016-11-24T04:00:10.710Z,998.08
2016-11-24T04:00:51.433Z,998.1
2016-11-24T04:01:32.111Z,998.12
2016-11-24T04:02:12.819Z,998.17
2016-11-24T04:02:53.560Z,998.16
2016-11-24T04:03:34.189Z,998.22
2016-11-24T04:04:14.887Z,998.18
2016-11-24T04:04:55.612Z,998.21
2016-11-24T04:05:36.322Z,998.19
2016-11-24T04:06:17.008Z,998.2
2016-11-24T04:06:57.704Z,998.25
2016-11-24T04:07:38.366Z,998.22
2016-11-24T04:08:19.069Z,998.23
2016-11-24T04:08:59.808Z,998.23
2016-11-24T04:09:40.486Z,998.25
2016-11-24T04:10:21.166Z,998.27
2016-11-24T04:11:01.800Z,998.26
2016-11-24T04:11:42.503Z,998.29
2016-11-24T04:12:23.238Z,998.3
2016-11-24T04:13:03.863Z,998.33
2016-11-24T04:13:44.606Z,998.36
2016-11-24T04:14:25.248Z,998.35
2016-11-24T04:15:05.922Z,998.35
2016-11-24T04:15:46.610Z,998.37
2016-11-24T04:16:27.322Z,998.37
2016-11-24T04:17:07.980Z,998.36
2016-11-24T04:17:48.693Z,998.41
2016-11-24T04:18:29.449Z,998.41
2016-11-24T04:19:10.193Z,998.39
2016-11-24T04:19:50.844Z,998.42
2016-11-24T04:20:31.555Z,998.47
2016-11-24T04:21:12.239Z,998.47
2016-11-24T04:21:53.001Z,998.52
2016-11-24T04:22:33.717Z,998.48
2016-11-24T04:23:14.374Z,998.52
2016-11-24T04:23:55.028Z,998.55
2016-11-24T04:24:35.644Z,998.51
2016-11-24T04:25:16.328Z,998.54
2016-11-24T04:25:57.076Z,998.55
2016-11-24T04:26:37.769Z,998.53
2016-11-24T04:27:18.455Z,998.52
2016-11-24T04:27:59.194Z,998.54
2016-11-24T04:28:39.847Z,998.56
2016-11-24T04:29:20.525Z,998.52
2016-11-24T04:30:01.264Z,998.54
2016-11-24T04:30:41.953Z,998.53
2016-11-24T04:31:22.657Z,998.54
2016-11-24T04:32:03.313Z,998.54
2016-11-24T04:32:44.006Z,998.54
2016-11-24T04:33:24.747Z,998.58
2016-11-24T04:34:05.456Z,998.61
2016-11-24T04:34:46.165Z,998.64
2016-11-24T04:35:26.801Z,998.7
2016-11-24T04:36:07.483Z,998.67
2016-11-24T04:36:48.213Z,998.68
2016-11-24T04:37:28.888Z,998.72
2016-11-24T04:38:09.612Z,998.7
2016-11-24T04:38:50.288Z,998.7
2016-11-24T04:39:30.993Z,998.72
2016-11-24T04:40:11.703Z,998.69
2016-11-24T04:40:52.383Z,998.69
2016-11-24T04:41:33.039Z,998.72
2016-11-24T04:42:13.674Z,998.77
2016-11-24T04:42:54.331Z,998.74
2016-11-24T04:43:35.087Z,998.77
2016-11-24T04:44:15.756Z,998.78
2016-11-24T04:44:56.401Z,998.79
2016-11-24T04:45:37.081Z,998.8
2016-11-24T04:46:17.747Z,998.8
2016-11-24T04:46:58.459Z,998.79
2016-11-24T04:47:39.205Z,998.79
2016-11-24T04:48:19.841Z,998.79
2016-11-24T04:49:00.545Z,998.82
2016-11-24T04:49:41.295Z,998.78
2016-11-24T04:50:21.957Z,998.85
2016-11-24T04:51:02.684Z,998.79
2016-11-24T04:51:43.405Z,998.83
2016-11-24T04:52:24.061Z,998.8
2016-11-24T04:53:04.723Z,998.82
2016-11-24T04:53:45.458Z,998.78
2016-11-24T04:54:26.131Z,998.77
2016-11-24T04:55:06.814Z,998.8
2016-11-24T04:55:47.507Z,998.79
2016-11-24T04:56:28.213Z,998.79
2016-11-24T04:57:08.894Z,998.83
2016-11-24T04:57:49.612Z,998.81
2016-11-24T04:58:30.265Z,998.79
2016-11-24T04:59:10.959Z,998.83
2016-11-24T04:59:51.675Z,998.81
2016-11-24T05:00:32.436Z,998.8
2016-11-24T05:01:13.159Z,998.81
2016-11-24T05:01:53.869Z,998.82
2016-11-24T05:02:34.557Z,998.83
2016-11-24T05:03:15.235Z,998.81
2016-11-24T05:03:55.959Z,998.82
2016-11-24T05:04:36.661Z,998.82
2016-11-24T05:05:17.377Z,998.85
2016-11-24T05:05:58.111Z,998.83
2016-11-24T05:06:38.752Z,998.85
2016-11-24T05:07:19.451Z,998.89
2016-11-24T05:08:00.137Z,998.89
2016-11-24T05:08:40.926Z,998.88
2016-11-24T05:09:21.639Z,998.87
2016-11-24T05:10:02.320Z,998.89
2016-11-24T05:10:43.031Z,998.86
2016-11-24T05:11:23.689Z,998.88
2016-11-24T05:12:04.375Z,998.86
2016-11-24T05:12:45.035Z,998.85
2016-11-24T05:13:25.707Z,998.88
2016-11-24T05:14:06.383Z,998.86
2016-11-24T05:14:47.016Z,998.87
2016-11-24T05:15:27.697Z,998.89
2016-11-24T05:16:08.417Z,998.88
2016-11-24T05:16:49.073Z,998.89
2016-11-24T05:17:29.731Z,998.9
2016-11-24T05:18:10.429Z,998.94
2016-11-24T05:18:51.143Z,998.93
2016-11-24T05:19:31.911Z,998.93
2016-11-24T05:20:12.637Z,998.92
2016-11-24T05:20:53.345Z,998.92
2016-11-24T05:21:34.007Z,998.95
2016-11-24T05:22:14.697Z,998.95
2016-11-24T05:22:55.345Z,998.95
2016-11-24T05:23:36.036Z,998.96
2016-11-24T05:24:16.686Z,998.95
2016-11-24T05:24:57.374Z,998.95
2016-11-24T05:25:38.108Z,998.97
2016-11-24T05:26:18.797Z,999.01
2016-11-24T05:26:59.484Z,999.06
2016-11-24T05:27:40.232Z,999.03
2016-11-24T05:28:20.917Z,999.05
2016-11-24T05:29:01.640Z,999.07
2016-11-24T05:29:42.351Z,999.08
2016-11-24T05:30:23.072Z,999.09
2016-11-24T05:31:03.831Z,999.08
2016-11-24T05:31:44.488Z,999.11
2016-11-24T05:32:25.188Z,999.11
2016-11-24T05:33:05.905Z,999.13
2016-11-24T05:33:46.628Z,999.09
2016-11-24T05:34:27.327Z,999.08
2016-11-24T05:35:08.089Z,999.11
2016-11-24T05:35:48.783Z,999.1
2016-11-24T05:36:29.442Z,999.08
2016-11-24T05:37:10.075Z,999.05
2016-11-24T05:37:50.794Z,999.04
2016-11-24T05:38:31.521Z,999.04
2016-11-24T05:39:12.244Z,999.07
2016-11-24T05:39:52.842Z,999.04
2016-11-24T05:40:33.523Z,999.06
2016-11-24T05:41:14.216Z,999.04
2016-11-24T05:41:54.935Z,999.09
2016-11-24T05:42:35.636Z,999.1
2016-11-24T05:43:16.303Z,999.09
2016-11-24T05:43:56.980Z,999.09
2016-11-24T05:44:37.701Z,999.13
2016-11-24T05:45:18.450Z,999.15
2016-11-24T05:45:59.104Z,999.19
2016-11-24T05:46:39.780Z,999.18
2016-11-24T05:47:20.511Z,999.21
2016-11-24T05:48:01.162Z,999.22
2016-11-24T05:48:41.853Z,999.23
2016-11-24T05:49:22.519Z,999.26
2016-11-24T05:50:03.165Z,999.27
2016-11-24T05:50:43.840Z,999.31
2016-11-24T05:51:24.508Z,999.31
2016-11-24T05:52:05.191Z,999.31
2016-11-24T05:52:45.862Z,999.37
2016-11-24T05:53:26.610Z,999.39
2016-11-24T05:54:07.316Z,999.35
2016-11-24T05:54:48.021Z,999.37
2016-11-24T05:55:28.759Z,999.37
2016-11-24T05:56:09.445Z,999.39
2016-11-24T05:56:50.124Z,999.36
2016-11-24T05:57:30.812Z,999.35
2016-11-24T05:58:11.510Z,999.36
2016-11-24T05:58:52.174Z,999.34
2016-11-24T05:59:32.914Z,999.33
2016-11-24T06:00:13.704Z,999.31
2016-11-24T06:00:54.376Z,999.35
2016-11-24T06:01:35.142Z,999.36
2016-11-24T06:02:15.849Z,999.34
2016-11-24T06:02:56.499Z,999.36
2016-11-24T06:03:37.206Z,999.39
2016-11-24T06:04:17.990Z,999.36
2016-11-24T06:04:58.764Z,999.4
2016-11-24T06:05:39.478Z,999.36
2016-11-24T06:06:20.210Z,999.38
2016-11-24T06:07:00.935Z,999.38
2016-11-24T06:07:41.607Z,999.42
2016-11-24T06:08:22.303Z,999.43
2016-11-24T06:09:02.966Z,999.44
2016-11-24T06:09:43.718Z,999.43
2016-11-24T06:10:24.426Z,999.44
2016-11-24T06:11:05.121Z,999.47
2016-11-24T06:11:45.850Z,999.53
2016-11-24T06:12:26.510Z,999.53
2016-11-24T06:13:07.184Z,999.5
2016-11-24T06:13:47.914Z,999.52
2016-11-24T06:14:28.601Z,999.54
2016-11-24T06:15:09.321Z,999.5
2016-11-24T06:15:50.017Z,999.54
2016-11-24T06:16:30.725Z,999.58
2016-11-24T06:17:11.437Z,999.62
2016-11-24T06:17:52.100Z,999.65
2016-11-24T06:18:32.769Z,999.64
2016-11-24T06:19:13.459Z,999.68
2016-11-24T06:19:54.129Z,999.68
2016-11-24T06:20:34.877Z,999.65
2016-11-24T06:21:15.621Z,999.72
2016-11-24T06:21:56.313Z,999.71
2016-11-24T06:22:36.951Z,999.72
2016-11-24T06:23:17.715Z,999.79
2016-11-24T06:23:58.345Z,999.79
2016-11-24T06:24:39.036Z,999.78
2016-11-24T06:25:19.762Z,999.81
2016-11-24T06:26:00.433Z,999.83
2016-11-24T06:26:41.175Z,999.84
2016-11-24T06:27:21.857Z,999.83
2016-11-24T06:28:02.564Z,999.86
2016-11-24T06:28:43.274Z,999.88
2016-11-24T06:29:23.927Z,999.86
2016-11-24T06:30:04.622Z,999.85
2016-11-24T06:30:45.323Z,999.83
2016-11-24T06:31:26.039Z,999.84
2016-11-24T06:32:06.698Z,999.86
2016-11-24T06:32:47.417Z,999.86
2016-11-24T06:33:28.066Z,999.92
2016-11-24T06:34:08.781Z,999.92
2016-11-24T06:34:49.517Z,999.91
2016-11-24T06:35:30.208Z,999.94
2016-11-24T06:36:10.947Z,999.93
2016-11-24T06:36:51.647Z,999.96
2016-11-24T06:37:32.307Z,999.95
2016-11-24T06:38:12.981Z,999.99
2016-11-24T06:38:53.657Z,999.98
2016-11-24T06:39:34.357Z,999.99
2016-11-24T06:40:15.114Z,1000.02
2016-11-24T06:40:55.861Z,1000.06
2016-11-24T06:41:36.565Z,1000.07
2016-11-24T06:42:17.324Z,1000.04
2016-11-24T06:42:57.992Z,1000.08
2016-11-24T06:43:38.662Z,1000.07
2016-11-24T06:44:19.372Z,1000.11
2016-11-24T06:45:00.083Z,1000.11
2016-11-24T06:45:40.757Z,1000.12
2016-11-24T06:46:21.437Z,1000.14
2016-11-24T06:47:02.099Z,1000.14
2016-11-24T06:47:42.781Z,1000.16
2016-11-24T06:48:23.499Z,1000.17
2016-11-24T06:49:04.148Z,1000.18
2016-11-24T06:49:44.835Z,1000.17
2016-11-24T06:50:25.519Z,1000.19
2016-11-24T06:51:06.177Z,1000.21
2016-11-24T06:51:46.865Z,1000.19
2016-11-24T06:52:27.519Z,1000.19
2016-11-24T06:53:08.289Z,1000.24
2016-11-24T06:53:48.969Z,1000.24
2016-11-24T06:54:29.658Z,1000.23
2016-11-24T06:55:10.375Z,1000.25
2016-11-24T06:55:51.068Z,1000.25
2016-11-24T06:56:31.790Z,1000.24
2016-11-24T06:57:12.480Z,1000.25
2016-11-24T06:57:53.166Z,1000.24
2016-11-24T06:58:33.933Z,1000.21
2016-11-24T06:59:14.604Z,1000.21
2016-11-24T06:59:55.310Z,1000.21
2016-11-24T07:00:36.044Z,1000.2
2016-11-24T07:01:16.792Z,1000.23
2016-11-24T07:01:57.466Z,1000.19
2016-11-24T07:02:38.119Z,1000.19
2016-11-24T07:03:18.790Z,1000.16
2016-11-24T07:03:59.514Z,1000.18
2016-11-24T07:04:40.236Z,1000.18
2016-11-24T07:05:20.889Z,1000.22
2016-11-24T07:06:01.680Z,1000.19
2016-11-24T07:06:42.406Z,1000.25
2016-11-24T07:07:23.126Z,1000.24
2016-11-24T07:08:03.818Z,1000.27
2016-11-24T07:08:44.524Z,1000.24
2016-11-24T07:09:25.216Z,1000.27
2016-11-24T07:10:05.944Z,1000.27
2016-11-24T07:10:46.637Z,1000.25
2016-11-24T07:11:27.405Z,1000.25
2016-11-24T07:12:08.052Z,1000.23
2016-11-24T07:12:48.768Z,1000.23
2016-11-24T07:13:29.510Z,1000.25
2016-11-24T07:14:10.186Z,1000.23
2016-11-24T07:14:50.817Z,1000.21
2016-11-24T07:15:31.583Z,1000.2
2016-11-24T07:16:12.209Z,1000.22
2016-11-24T07:16:52.932Z,1000.18
2016-11-24T07:17:33.618Z,1000.19
2016-11-24T07:18:14.380Z,1000.16
2016-11-24T07:18:55.154Z,1000.2
2016-11-24T07:19:35.851Z,1000.16
2016-11-24T07:20:16.485Z,1000.15
2016-11-24T07:20:57.196Z,1000.16
2016-11-24T07:21:37.913Z,1000.15
2016-11-24T07:22:18.636Z,1000.16
2016-11-24T07:22:59.340Z,1000.19
2016-11-24T07:23:40.006Z,1000.17
2016-11-24T07:24:20.726Z,1000.18
2016-11-24T07:25:01.386Z,1000.22
2016-11-24T07:25:42.699Z,1000.24
2016-11-24T07:26:22.806Z,1000.25
2016-11-24T07:27:03.506Z,1000.23
2016-11-24T07:27:44.262Z,1000.25
2016-11-24T07:28:24.926Z,1000.27
2016-11-24T07:29:05.616Z,1000.25
2016-11-24T07:29:46.312Z,1000.25
2016-11-24T07:30:27.044Z,1000.25
2016-11-24T07:31:07.762Z,1000.24
2016-11-24T07:31:48.463Z,1000.25
2016-11-24T07:32:29.218Z,1000.27
2016-11-24T07:33:09.891Z,1000.25
2016-11-24T07:33:50.614Z,1000.24
2016-11-24T07:34:31.550Z,1000.24
2016-11-24T07:35:12.254Z,1000.24
2016-11-24T07:35:52.931Z,1000.24
2016-11-24T07:36:33.625Z,1000.22
2016-11-24T07:37:14.296Z,1000.2
2016-11-24T07:37:54.992Z,1000.24
2016-11-24T07:38:35.689Z,1000.22
2016-11-24T07:39:16.370Z,1000.19
2016-11-24T07:39:57.053Z,1000.21
2016-11-24T07:40:37.800Z,1000.2
2016-11-24T07:41:18.511Z,1000.23
2016-11-24T07:41:59.255Z,1000.27
2016-11-24T07:42:39.964Z,1000.24
2016-11-24T07:43:20.685Z,1000.25
2016-11-24T07:44:01.376Z,1000.24
2016-11-24T07:44:42.038Z,1000.26
2016-11-24T07:45:22.698Z,1000.27
2016-11-24T07:46:03.429Z,1000.27
2016-11-24T07:46:44.253Z,1000.28
2016-11-24T07:47:24.933Z,1000.29
2016-11-24T07:48:05.656Z,1000.28
2016-11-24T07:48:46.314Z,1000.31
2016-11-24T07:49:27.000Z,1000.31
2016-11-24T07:50:07.727Z,1000.3
2016-11-24T07:50:48.388Z,1000.33
2016-11-24T07:51:29.152Z,1000.35
2016-11-24T07:52:09.880Z,1000.37
2016-11-24T07:52:50.585Z,1000.37
2016-11-24T07:53:31.387Z,1000.39
2016-11-24T07:54:12.092Z,1000.39
2016-11-24T07:54:52.797Z,1000.39
2016-11-24T07:55:33.481Z,1000.44
2016-11-24T07:56:14.250Z,1000.45
2016-11-24T07:56:55.007Z,1000.43
2016-11-24T07:57:35.680Z,1000.45
2016-11-24T07:58:16.435Z,1000.47
2016-11-24T07:58:57.141Z,1000.45
2016-11-24T07:59:37.806Z,1000.45
2016-11-24T08:00:18.503Z,1000.45
2016-11-24T08:00:59.227Z,1000.46
2016-11-24T08:01:39.924Z,1000.44
2016-11-24T08:02:20.571Z,1000.46
2016-11-24T08:03:01.301Z,1000.47
2016-11-24T08:03:41.979Z,1000.52
2016-11-24T08:04:22.678Z,1000.51
2016-11-24T08:05:03.408Z,1000.51
2016-11-24T08:05:44.122Z,1000.56
2016-11-24T08:06:24.819Z,1000.55
2016-11-24T08:07:05.476Z,1000.56
2016-11-24T08:07:46.141Z,1000.59
2016-11-24T08:08:26.872Z,1000.55
2016-11-24T08:09:07.600Z,1000.6
2016-11-24T08:09:48.423Z,1000.63
2016-11-24T08:10:29.088Z,1000.59
2016-11-24T08:11:09.813Z,1000.61
2016-11-24T08:11:50.488Z,1000.58
2016-11-24T08:12:31.182Z,1000.62
2016-11-24T08:13:11.912Z,1000.6
2016-11-24T08:13:52.579Z,1000.62
2016-11-24T08:14:33.332Z,1000.63
2016-11-24T08:15:14.021Z,1000.66
2016-11-24T08:15:54.723Z,1000.61
2016-11-24T08:16:35.414Z,1000.64
2016-11-24T08:17:16.122Z,1000.63
2016-11-24T08:17:56.851Z,1000.58
2016-11-24T08:18:37.672Z,1000.63
2016-11-24T08:19:18.347Z,1000.62
2016-11-24T08:19:59.091Z,1000.62
2016-11-24T08:20:39.783Z,1000.6
2016-11-24T08:21:20.496Z,1000.59
2016-11-24T08:22:01.202Z,1000.6
2016-11-24T08:22:41.997Z,1000.6
2016-11-24T08:23:22.643Z,1000.62
2016-11-24T08:24:03.328Z,1000.66
2016-11-24T08:24:44.025Z,1000.63
2016-11-24T08:25:25.490Z,1000.65